sensor_id;sensor_type;location;lat;lon;timestamp;P1;durP1;ratioP1;P2;durP2;ratioP2
7160;SDS011;3622;53.576;9.978;2023-06-26T00:02:21;467.23;;;142.30;;
7160;SDS011;3622;53.576;9.978;2023-06-26T00:04:47;459.33;;;135.17;;
7160;SDS011;3622;53.576;9.978;2023-06-26T00:07:13;473.17;;;137.13;;
7160;SDS011;3622;53.576;9.978;2023-06-26T00:09:39;467.63;;;138.23;;
7160;SDS011;3622;53.576;9.978;2023-06-26T00:12:05;473.33;;;135.63;;
7160;SDS011;3622;53.576;9.978;2023-06-26T00:14:31;464.90;;;138.73;;
7160;SDS011;3622;53.576;9.978;2023-06-26T00:16:57;467.00;;;135.17;;
7160;SDS011;3622;53.576;9.978;2023-06-26T00:19:23;468.23;;;136.93;;
7160;SDS011;3622;53.576;9.978;2023-06-26T00:21:49;467.60;;;133.47;;
7160;SDS011;3622;53.576;9.978;2023-06-26T00:24:15;464.37;;;138.80;;
7160;SDS011;3622;53.576;9.978;2023-06-26T00:26:41;465.10;;;136.40;;
7160;SDS011;3622;53.576;9.978;2023-06-26T00:29:07;473.10;;;142.40;;
7160;SDS011;3622;53.576;9.978;2023-06-26T00:31:33;474.93;;;139.17;;
7160;SDS011;3622;53.576;9.978;2023-06-26T00:34:00;464.77;;;136.63;;
7160;SDS011;3622;53.576;9.978;2023-06-26T00:36:26;474.83;;;134.80;;
7160;SDS011;3622;53.576;9.978;2023-06-26T00:38:52;476.60;;;140.10;;
7160;SDS011;3622;53.576;9.978;2023-06-26T00:41:18;466.83;;;137.97;;
7160;SDS011;3622;53.576;9.978;2023-06-26T00:43:44;471.93;;;138.07;;
7160;SDS011;3622;53.576;9.978;2023-06-26T00:46:12;461.87;;;135.63;;
7160;SDS011;3622;53.576;9.978;2023-06-26T00:48:38;464.97;;;140.47;;
7160;SDS011;3622;53.576;9.978;2023-06-26T00:51:04;472.07;;;137.33;;
7160;SDS011;3622;53.576;9.978;2023-06-26T00:53:31;466.13;;;138.33;;
7160;SDS011;3622;53.576;9.978;2023-06-26T00:55:57;472.17;;;133.03;;
7160;SDS011;3622;53.576;9.978;2023-06-26T00:58:24;475.77;;;139.57;;
7160;SDS011;3622;53.576;9.978;2023-06-26T01:00:52;472.30;;;134.57;;
7160;SDS011;3622;53.576;9.978;2023-06-26T01:03:22;465.97;;;131.93;;
7160;SDS011;3622;53.576;9.978;2023-06-26T01:05:48;476.50;;;138.73;;
7160;SDS011;3622;53.576;9.978;2023-06-26T01:08:15;464.17;;;131.17;;
7160;SDS011;3622;53.576;9.978;2023-06-26T01:10:42;472.50;;;132.43;;
7160;SDS011;3622;53.576;9.978;2023-06-26T01:13:08;465.53;;;136.00;;
7160;SDS011;3622;53.576;9.978;2023-06-26T01:15:34;472.10;;;137.03;;
7160;SDS011;3622;53.576;9.978;2023-06-26T01:18:00;468.47;;;132.53;;
7160;SDS011;3622;53.576;9.978;2023-06-26T01:20:32;465.10;;;133.87;;
7160;SDS011;3622;53.576;9.978;2023-06-26T01:28:15;468.97;;;128.80;;
7160;SDS011;3622;53.576;9.978;2023-06-26T01:30:43;469.27;;;128.70;;
7160;SDS011;3622;53.576;9.978;2023-06-26T01:33:10;458.23;;;119.70;;
7160;SDS011;3622;53.576;9.978;2023-06-26T01:35:36;470.13;;;131.93;;
7160;SDS011;3622;53.576;9.978;2023-06-26T01:38:12;472.60;;;134.83;;
7160;SDS011;3622;53.576;9.978;2023-06-26T01:40:38;463.77;;;131.87;;
7160;SDS011;3622;53.576;9.978;2023-06-26T01:43:05;463.50;;;130.40;;
7160;SDS011;3622;53.576;9.978;2023-06-26T01:45:32;470.87;;;128.60;;
7160;SDS011;3622;53.576;9.978;2023-06-26T01:47:58;467.60;;;135.17;;
7160;SDS011;3622;53.576;9.978;2023-06-26T01:50:28;466.27;;;128.63;;
7160;SDS011;3622;53.576;9.978;2023-06-26T01:55:23;461.60;;;130.37;;
7160;SDS011;3622;53.576;9.978;2023-06-26T01:57:52;475.83;;;132.03;;
7160;SDS011;3622;53.576;9.978;2023-06-26T02:00:19;461.70;;;132.97;;
7160;SDS011;3622;53.576;9.978;2023-06-26T02:02:46;460.40;;;125.70;;
7160;SDS011;3622;53.576;9.978;2023-06-26T02:05:12;464.60;;;130.43;;
7160;SDS011;3622;53.576;9.978;2023-06-26T02:07:41;469.30;;;130.63;;
7160;SDS011;3622;53.576;9.978;2023-06-26T02:10:07;462.07;;;124.80;;
7160;SDS011;3622;53.576;9.978;2023-06-26T02:12:34;464.23;;;133.67;;
7160;SDS011;3622;53.576;9.978;2023-06-26T02:15:00;466.27;;;130.80;;
7160;SDS011;3622;53.576;9.978;2023-06-26T02:17:27;462.43;;;128.90;;
7160;SDS011;3622;53.576;9.978;2023-06-26T02:19:52;461.37;;;127.23;;
7160;SDS011;3622;53.576;9.978;2023-06-26T02:22:18;470.03;;;131.10;;
7160;SDS011;3622;53.576;9.978;2023-06-26T02:24:44;467.23;;;128.80;;
7160;SDS011;3622;53.576;9.978;2023-06-26T02:27:10;460.20;;;123.77;;
7160;SDS011;3622;53.576;9.978;2023-06-26T02:29:36;458.63;;;125.20;;
7160;SDS011;3622;53.576;9.978;2023-06-26T02:32:02;467.10;;;129.47;;
7160;SDS011;3622;53.576;9.978;2023-06-26T02:34:28;478.07;;;138.47;;
7160;SDS011;3622;53.576;9.978;2023-06-26T02:36:55;462.17;;;124.10;;
7160;SDS011;3622;53.576;9.978;2023-06-26T02:39:21;486.77;;;144.17;;
7160;SDS011;3622;53.576;9.978;2023-06-26T02:41:47;454.67;;;128.67;;
7160;SDS011;3622;53.576;9.978;2023-06-26T02:44:13;461.30;;;122.70;;
7160;SDS011;3622;53.576;9.978;2023-06-26T02:46:39;464.33;;;124.97;;
7160;SDS011;3622;53.576;9.978;2023-06-26T02:49:05;468.17;;;127.87;;
7160;SDS011;3622;53.576;9.978;2023-06-26T02:51:34;474.60;;;132.97;;
7160;SDS011;3622;53.576;9.978;2023-06-26T02:54:00;458.90;;;128.50;;
7160;SDS011;3622;53.576;9.978;2023-06-26T02:56:26;476.10;;;129.63;;
7160;SDS011;3622;53.576;9.978;2023-06-26T02:58:56;467.93;;;123.87;;
7160;SDS011;3622;53.576;9.978;2023-06-26T03:01:23;460.33;;;126.43;;
7160;SDS011;3622;53.576;9.978;2023-06-26T03:03:48;458.83;;;122.43;;
7160;SDS011;3622;53.576;9.978;2023-06-26T03:06:15;460.30;;;125.07;;
7160;SDS011;3622;53.576;9.978;2023-06-26T03:08:41;460.13;;;120.97;;
7160;SDS011;3622;53.576;9.978;2023-06-26T03:11:07;469.50;;;128.90;;
7160;SDS011;3622;53.576;9.978;2023-06-26T03:13:34;457.77;;;124.87;;
7160;SDS011;3622;53.576;9.978;2023-06-26T03:16:00;485.37;;;135.40;;
7160;SDS011;3622;53.576;9.978;2023-06-26T03:18:26;462.93;;;124.27;;
7160;SDS011;3622;53.576;9.978;2023-06-26T03:20:52;470.90;;;132.90;;
7160;SDS011;3622;53.576;9.978;2023-06-26T03:23:22;466.80;;;136.50;;
7160;SDS011;3622;53.576;9.978;2023-06-26T03:25:48;457.50;;;126.05;;
7160;SDS011;3622;53.576;9.978;2023-06-26T03:28:14;462.27;;;130.87;;
7160;SDS011;3622;53.576;9.978;2023-06-26T03:30:40;468.13;;;132.77;;
7160;SDS011;3622;53.576;9.978;2023-06-26T03:33:06;468.53;;;126.93;;
7160;SDS011;3622;53.576;9.978;2023-06-26T03:35:32;467.07;;;127.87;;
7160;SDS011;3622;53.576;9.978;2023-06-26T03:37:58;457.50;;;120.57;;
7160;SDS011;3622;53.576;9.978;2023-06-26T03:40:25;462.07;;;128.47;;
7160;SDS011;3622;53.576;9.978;2023-06-26T03:42:52;458.00;;;121.87;;
7160;SDS011;3622;53.576;9.978;2023-06-26T03:45:17;455.67;;;119.70;;
7160;SDS011;3622;53.576;9.978;2023-06-26T03:47:44;460.17;;;126.20;;
7160;SDS011;3622;53.576;9.978;2023-06-26T03:50:13;460.00;;;120.90;;
7160;SDS011;3622;53.576;9.978;2023-06-26T03:52:39;477.20;;;127.30;;
7160;SDS011;3622;53.576;9.978;2023-06-26T03:55:05;461.20;;;128.10;;
7160;SDS011;3622;53.576;9.978;2023-06-26T03:57:31;458.43;;;125.07;;
7160;SDS011;3622;53.576;9.978;2023-06-26T03:59:57;462.23;;;123.07;;
7160;SDS011;3622;53.576;9.978;2023-06-26T04:02:23;455.10;;;122.63;;
7160;SDS011;3622;53.576;9.978;2023-06-26T04:04:49;462.60;;;125.67;;
7160;SDS011;3622;53.576;9.978;2023-06-26T04:07:15;458.63;;;126.47;;
7160;SDS011;3622;53.576;9.978;2023-06-26T04:09:41;464.40;;;125.67;;
7160;SDS011;3622;53.576;9.978;2023-06-26T04:12:07;465.53;;;130.07;;
7160;SDS011;3622;53.576;9.978;2023-06-26T04:14:32;453.50;;;126.13;;
7160;SDS011;3622;53.576;9.978;2023-06-26T04:16:59;459.23;;;136.73;;
7160;SDS011;3622;53.576;9.978;2023-06-26T04:19:28;449.33;;;127.80;;
7160;SDS011;3622;53.576;9.978;2023-06-26T04:21:53;452.00;;;130.33;;
7160;SDS011;3622;53.576;9.978;2023-06-26T04:24:20;451.83;;;133.27;;
7160;SDS011;3622;53.576;9.978;2023-06-26T04:26:46;449.17;;;138.23;;
7160;SDS011;3622;53.576;9.978;2023-06-26T04:29:11;457.27;;;138.27;;
7160;SDS011;3622;53.576;9.978;2023-06-26T04:31:38;439.87;;;144.57;;
7160;SDS011;3622;53.576;9.978;2023-06-26T04:34:04;444.03;;;141.90;;
7160;SDS011;3622;53.576;9.978;2023-06-26T04:36:30;450.60;;;149.73;;
7160;SDS011;3622;53.576;9.978;2023-06-26T04:38:58;453.50;;;147.43;;
7160;SDS011;3622;53.576;9.978;2023-06-26T04:41:24;445.23;;;142.80;;
7160;SDS011;3622;53.576;9.978;2023-06-26T04:43:50;445.77;;;146.20;;
7160;SDS011;3622;53.576;9.978;2023-06-26T04:46:16;443.03;;;147.23;;
7160;SDS011;3622;53.576;9.978;2023-06-26T04:48:42;448.87;;;151.60;;
7160;SDS011;3622;53.576;9.978;2023-06-26T04:51:09;448.40;;;145.33;;
7160;SDS011;3622;53.576;9.978;2023-06-26T04:53:35;435.40;;;155.03;;
7160;SDS011;3622;53.576;9.978;2023-06-26T04:56:02;454.17;;;164.20;;
7160;SDS011;3622;53.576;9.978;2023-06-26T04:58:28;444.47;;;163.03;;
7160;SDS011;3622;53.576;9.978;2023-06-26T05:00:54;431.67;;;157.50;;
7160;SDS011;3622;53.576;9.978;2023-06-26T05:03:20;439.57;;;170.03;;
7160;SDS011;3622;53.576;9.978;2023-06-26T05:05:46;434.23;;;163.00;;
7160;SDS011;3622;53.576;9.978;2023-06-26T05:08:31;439.33;;;164.47;;
7160;SDS011;3622;53.576;9.978;2023-06-26T05:10:57;435.33;;;172.57;;
7160;SDS011;3622;53.576;9.978;2023-06-26T05:13:26;431.07;;;169.33;;
7160;SDS011;3622;53.576;9.978;2023-06-26T05:15:52;441.43;;;171.43;;
7160;SDS011;3622;53.576;9.978;2023-06-26T05:18:18;448.13;;;177.20;;
7160;SDS011;3622;53.576;9.978;2023-06-26T05:20:44;428.43;;;187.53;;
7160;SDS011;3622;53.576;9.978;2023-06-26T05:23:11;436.20;;;175.87;;
7160;SDS011;3622;53.576;9.978;2023-06-26T05:25:38;433.23;;;183.60;;
7160;SDS011;3622;53.576;9.978;2023-06-26T05:28:04;419.97;;;184.13;;
7160;SDS011;3622;53.576;9.978;2023-06-26T05:30:30;434.03;;;194.03;;
7160;SDS011;3622;53.576;9.978;2023-06-26T05:32:57;434.83;;;196.50;;
7160;SDS011;3622;53.576;9.978;2023-06-26T05:35:25;431.00;;;178.80;;
7160;SDS011;3622;53.576;9.978;2023-06-26T05:37:54;423.73;;;170.73;;
7160;SDS011;3622;53.576;9.978;2023-06-26T05:40:21;418.67;;;186.23;;
7160;SDS011;3622;53.576;9.978;2023-06-26T05:42:47;432.40;;;194.93;;
7160;SDS011;3622;53.576;9.978;2023-06-26T05:45:13;421.70;;;197.97;;
7160;SDS011;3622;53.576;9.978;2023-06-26T05:47:39;424.90;;;200.73;;
7160;SDS011;3622;53.576;9.978;2023-06-26T05:50:05;425.23;;;197.40;;
7160;SDS011;3622;53.576;9.978;2023-06-26T05:52:31;425.83;;;197.23;;
7160;SDS011;3622;53.576;9.978;2023-06-26T05:54:58;424.90;;;208.53;;
7160;SDS011;3622;53.576;9.978;2023-06-26T05:57:25;413.87;;;188.77;;
7160;SDS011;3622;53.576;9.978;2023-06-26T05:59:52;414.20;;;205.10;;
7160;SDS011;3622;53.576;9.978;2023-06-26T06:02:18;434.73;;;219.53;;
7160;SDS011;3622;53.576;9.978;2023-06-26T06:04:44;419.37;;;207.07;;
7160;SDS011;3622;53.576;9.978;2023-06-26T06:07:11;431.37;;;210.73;;
7160;SDS011;3622;53.576;9.978;2023-06-26T06:09:37;418.43;;;201.57;;
7160;SDS011;3622;53.576;9.978;2023-06-26T06:12:06;436.63;;;209.87;;
7160;SDS011;3622;53.576;9.978;2023-06-26T06:14:32;424.23;;;203.83;;
7160;SDS011;3622;53.576;9.978;2023-06-26T06:16:58;425.30;;;207.77;;
7160;SDS011;3622;53.576;9.978;2023-06-26T06:19:24;421.50;;;215.43;;
7160;SDS011;3622;53.576;9.978;2023-06-26T06:21:50;433.50;;;228.57;;
7160;SDS011;3622;53.576;9.978;2023-06-26T06:24:16;421.63;;;218.53;;
7160;SDS011;3622;53.576;9.978;2023-06-26T06:26:42;420.57;;;225.13;;
7160;SDS011;3622;53.576;9.978;2023-06-26T06:29:08;419.83;;;217.03;;
7160;SDS011;3622;53.576;9.978;2023-06-26T06:31:34;411.93;;;213.37;;
7160;SDS011;3622;53.576;9.978;2023-06-26T06:34:00;412.47;;;206.83;;
7160;SDS011;3622;53.576;9.978;2023-06-26T06:36:26;419.07;;;218.90;;
7160;SDS011;3622;53.576;9.978;2023-06-26T06:38:52;421.10;;;201.37;;
7160;SDS011;3622;53.576;9.978;2023-06-26T06:41:19;432.07;;;225.53;;
7160;SDS011;3622;53.576;9.978;2023-06-26T06:43:45;420.13;;;219.90;;
7160;SDS011;3622;53.576;9.978;2023-06-26T06:46:11;427.83;;;231.93;;
7160;SDS011;3622;53.576;9.978;2023-06-26T06:48:37;422.80;;;220.97;;
7160;SDS011;3622;53.576;9.978;2023-06-26T06:51:03;425.00;;;219.40;;
7160;SDS011;3622;53.576;9.978;2023-06-26T06:53:29;411.10;;;215.20;;
7160;SDS011;3622;53.576;9.978;2023-06-26T06:55:55;436.23;;;227.70;;
7160;SDS011;3622;53.576;9.978;2023-06-26T06:58:21;425.67;;;229.53;;
7160;SDS011;3622;53.576;9.978;2023-06-26T07:00:47;423.87;;;221.77;;
7160;SDS011;3622;53.576;9.978;2023-06-26T07:03:14;429.63;;;236.63;;
7160;SDS011;3622;53.576;9.978;2023-06-26T07:05:43;426.63;;;237.43;;
7160;SDS011;3622;53.576;9.978;2023-06-26T07:08:09;429.67;;;240.73;;
7160;SDS011;3622;53.576;9.978;2023-06-26T07:10:35;416.80;;;232.60;;
7160;SDS011;3622;53.576;9.978;2023-06-26T07:13:01;426.17;;;239.30;;
7160;SDS011;3622;53.576;9.978;2023-06-26T07:15:27;419.07;;;227.73;;
7160;SDS011;3622;53.576;9.978;2023-06-26T07:17:53;409.70;;;227.47;;
7160;SDS011;3622;53.576;9.978;2023-06-26T07:20:19;422.10;;;237.90;;
7160;SDS011;3622;53.576;9.978;2023-06-26T07:22:45;411.47;;;238.57;;
7160;SDS011;3622;53.576;9.978;2023-06-26T07:25:12;431.60;;;242.30;;
7160;SDS011;3622;53.576;9.978;2023-06-26T07:27:38;422.87;;;245.13;;
7160;SDS011;3622;53.576;9.978;2023-06-26T07:30:04;419.63;;;246.17;;
7160;SDS011;3622;53.576;9.978;2023-06-26T07:32:30;412.20;;;229.07;;
7160;SDS011;3622;53.576;9.978;2023-06-26T07:34:56;419.37;;;236.53;;
7160;SDS011;3622;53.576;9.978;2023-06-26T07:37:22;433.17;;;237.77;;
7160;SDS011;3622;53.576;9.978;2023-06-26T07:39:51;428.50;;;238.47;;
7160;SDS011;3622;53.576;9.978;2023-06-26T07:42:17;431.33;;;227.80;;
7160;SDS011;3622;53.576;9.978;2023-06-26T07:44:43;428.80;;;241.63;;
7160;SDS011;3622;53.576;9.978;2023-06-26T07:47:09;426.27;;;240.60;;
7160;SDS011;3622;53.576;9.978;2023-06-26T07:49:35;405.17;;;224.97;;
7160;SDS011;3622;53.576;9.978;2023-06-26T07:52:01;431.53;;;229.17;;
7160;SDS011;3622;53.576;9.978;2023-06-26T07:54:27;427.73;;;251.03;;
7160;SDS011;3622;53.576;9.978;2023-06-26T07:56:58;420.67;;;238.00;;
7160;SDS011;3622;53.576;9.978;2023-06-26T07:59:26;431.60;;;235.03;;
7160;SDS011;3622;53.576;9.978;2023-06-26T08:01:53;447.37;;;252.73;;
7160;SDS011;3622;53.576;9.978;2023-06-26T08:04:19;461.17;;;250.20;;
7160;SDS011;3622;53.576;9.978;2023-06-26T08:06:47;485.30;;;238.50;;
7160;SDS011;3622;53.576;9.978;2023-06-26T08:09:13;466.80;;;228.43;;
7160;SDS011;3622;53.576;9.978;2023-06-26T08:11:39;450.00;;;212.77;;
7160;SDS011;3622;53.576;9.978;2023-06-26T08:14:05;450.30;;;245.53;;
7160;SDS011;3622;53.576;9.978;2023-06-26T08:16:31;445.77;;;243.03;;
7160;SDS011;3622;53.576;9.978;2023-06-26T08:18:57;451.93;;;233.70;;
7160;SDS011;3622;53.576;9.978;2023-06-26T08:21:23;476.23;;;236.20;;
7160;SDS011;3622;53.576;9.978;2023-06-26T08:23:49;476.83;;;234.43;;
7160;SDS011;3622;53.576;9.978;2023-06-26T08:26:15;449.90;;;228.27;;
7160;SDS011;3622;53.576;9.978;2023-06-26T08:28:41;441.77;;;223.03;;
7160;SDS011;3622;53.576;9.978;2023-06-26T08:31:07;460.77;;;227.67;;
7160;SDS011;3622;53.576;9.978;2023-06-26T08:33:33;440.00;;;230.60;;
7160;SDS011;3622;53.576;9.978;2023-06-26T08:35:59;465.70;;;236.30;;
7160;SDS011;3622;53.576;9.978;2023-06-26T08:38:25;434.90;;;242.63;;
7160;SDS011;3622;53.576;9.978;2023-06-26T08:40:51;429.63;;;241.20;;
7160;SDS011;3622;53.576;9.978;2023-06-26T08:43:17;444.17;;;250.70;;
7160;SDS011;3622;53.576;9.978;2023-06-26T08:45:43;450.97;;;248.70;;
7160;SDS011;3622;53.576;9.978;2023-06-26T08:48:09;457.40;;;249.80;;
7160;SDS011;3622;53.576;9.978;2023-06-26T08:50:36;453.40;;;244.03;;
7160;SDS011;3622;53.576;9.978;2023-06-26T08:53:04;451.33;;;241.77;;
7160;SDS011;3622;53.576;9.978;2023-06-26T08:55:35;452.53;;;221.17;;
7160;SDS011;3622;53.576;9.978;2023-06-26T08:58:01;471.37;;;232.07;;
7160;SDS011;3622;53.576;9.978;2023-06-26T09:00:27;442.40;;;221.27;;
7160;SDS011;3622;53.576;9.978;2023-06-26T09:02:53;448.37;;;218.90;;
7160;SDS011;3622;53.576;9.978;2023-06-26T09:05:20;438.20;;;219.10;;
7160;SDS011;3622;53.576;9.978;2023-06-26T09:07:46;437.93;;;222.50;;
7160;SDS011;3622;53.576;9.978;2023-06-26T09:10:12;451.10;;;229.27;;
7160;SDS011;3622;53.576;9.978;2023-06-26T09:12:38;456.83;;;221.77;;
7160;SDS011;3622;53.576;9.978;2023-06-26T09:15:05;430.13;;;225.40;;
7160;SDS011;3622;53.576;9.978;2023-06-26T09:17:32;456.10;;;232.03;;
7160;SDS011;3622;53.576;9.978;2023-06-26T09:19:59;429.00;;;227.13;;
7160;SDS011;3622;53.576;9.978;2023-06-26T09:22:25;435.73;;;233.47;;
7160;SDS011;3622;53.576;9.978;2023-06-26T09:24:52;431.17;;;225.50;;
7160;SDS011;3622;53.576;9.978;2023-06-26T09:27:18;448.10;;;228.47;;
7160;SDS011;3622;53.576;9.978;2023-06-26T09:29:47;304.13;;;177.20;;
7160;SDS011;3622;53.576;9.978;2023-06-26T09:32:14;339.13;;;176.67;;
7160;SDS011;3622;53.576;9.978;2023-06-26T09:34:41;296.50;;;153.23;;
7160;SDS011;3622;53.576;9.978;2023-06-26T09:37:07;247.93;;;136.17;;
7160;SDS011;3622;53.576;9.978;2023-06-26T09:39:33;155.73;;;78.23;;
7160;SDS011;3622;53.576;9.978;2023-06-26T09:41:59;89.40;;;57.83;;
7160;SDS011;3622;53.576;9.978;2023-06-26T09:44:26;38.97;;;25.87;;
7160;SDS011;3622;53.576;9.978;2023-06-26T09:46:54;45.30;;;27.43;;
7160;SDS011;3622;53.576;9.978;2023-06-26T09:49:20;35.37;;;17.80;;
7160;SDS011;3622;53.576;9.978;2023-06-26T09:51:46;41.47;;;17.30;;
7160;SDS011;3622;53.576;9.978;2023-06-26T09:54:15;30.33;;;15.20;;
7160;SDS011;3622;53.576;9.978;2023-06-26T09:56:42;33.20;;;14.70;;
7160;SDS011;3622;53.576;9.978;2023-06-26T09:59:08;34.17;;;16.53;;
7160;SDS011;3622;53.576;9.978;2023-06-26T10:01:36;33.37;;;14.77;;
7160;SDS011;3622;53.576;9.978;2023-06-26T10:04:02;32.33;;;14.33;;
7160;SDS011;3622;53.576;9.978;2023-06-26T10:06:33;18.50;;;13.80;;
7160;SDS011;3622;53.576;9.978;2023-06-26T10:09:02;25.70;;;14.67;;
7160;SDS011;3622;53.576;9.978;2023-06-26T10:11:33;23.83;;;15.53;;
7160;SDS011;3622;53.576;9.978;2023-06-26T10:14:01;30.20;;;15.77;;
7160;SDS011;3622;53.576;9.978;2023-06-26T10:16:29;28.27;;;14.90;;
7160;SDS011;3622;53.576;9.978;2023-06-26T10:18:58;25.10;;;16.10;;
7160;SDS011;3622;53.576;9.978;2023-06-26T10:21:26;19.90;;;13.40;;
7160;SDS011;3622;53.576;9.978;2023-06-26T10:23:53;13.57;;;11.23;;
7160;SDS011;3622;53.576;9.978;2023-06-26T10:26:20;19.10;;;10.63;;
7160;SDS011;3622;53.576;9.978;2023-06-26T10:28:47;13.03;;;9.97;;
7160;SDS011;3622;53.576;9.978;2023-06-26T10:31:16;16.20;;;10.03;;
7160;SDS011;3622;53.576;9.978;2023-06-26T10:33:44;13.87;;;9.57;;
7160;SDS011;3622;53.576;9.978;2023-06-26T10:36:14;9.93;;;8.43;;
7160;SDS011;3622;53.576;9.978;2023-06-26T10:38:54;16.27;;;8.63;;
7160;SDS011;3622;53.576;9.978;2023-06-26T10:41:21;10.70;;;8.63;;
7160;SDS011;3622;53.576;9.978;2023-06-26T10:46:20;8.60;;;7.70;;
7160;SDS011;3622;53.576;9.978;2023-06-26T10:48:59;11.83;;;7.70;;
7160;SDS011;3622;53.576;9.978;2023-06-26T10:51:28;13.87;;;8.10;;
7160;SDS011;3622;53.576;9.978;2023-06-26T10:53:55;11.77;;;7.30;;
7160;SDS011;3622;53.576;9.978;2023-06-26T10:56:21;13.17;;;8.30;;
7160;SDS011;3622;53.576;9.978;2023-06-26T10:59:16;12.03;;;7.57;;
7160;SDS011;3622;53.576;9.978;2023-06-26T11:01:43;16.90;;;8.37;;
7160;SDS011;3622;53.576;9.978;2023-06-26T11:04:09;16.30;;;9.23;;
7160;SDS011;3622;53.576;9.978;2023-06-26T11:06:36;21.90;;;9.57;;
7160;SDS011;3622;53.576;9.978;2023-06-26T11:14:17;26.40;;;9.77;;
7160;SDS011;3622;53.576;9.978;2023-06-26T11:16:43;24.47;;;10.53;;
7160;SDS011;3622;53.576;9.978;2023-06-26T11:19:10;18.20;;;9.33;;
7160;SDS011;3622;53.576;9.978;2023-06-26T11:21:38;23.30;;;7.87;;
7160;SDS011;3622;53.576;9.978;2023-06-26T11:24:06;15.03;;;7.30;;
7160;SDS011;3622;53.576;9.978;2023-06-26T11:26:37;19.73;;;8.07;;
7160;SDS011;3622;53.576;9.978;2023-06-26T11:29:04;23.53;;;7.73;;
7160;SDS011;3622;53.576;9.978;2023-06-26T11:31:33;22.33;;;9.40;;
7160;SDS011;3622;53.576;9.978;2023-06-26T11:34:01;13.60;;;6.80;;
7160;SDS011;3622;53.576;9.978;2023-06-26T11:36:28;20.27;;;6.67;;
7160;SDS011;3622;53.576;9.978;2023-06-26T11:38:54;16.53;;;6.00;;
7160;SDS011;3622;53.576;9.978;2023-06-26T11:41:21;18.77;;;5.90;;
7160;SDS011;3622;53.576;9.978;2023-06-26T11:43:47;13.30;;;6.70;;
7160;SDS011;3622;53.576;9.978;2023-06-26T11:46:15;15.47;;;6.17;;
7160;SDS011;3622;53.576;9.978;2023-06-26T11:48:41;11.43;;;5.37;;
7160;SDS011;3622;53.576;9.978;2023-06-26T11:51:07;18.47;;;5.70;;
7160;SDS011;3622;53.576;9.978;2023-06-26T11:53:38;13.53;;;5.87;;
7160;SDS011;3622;53.576;9.978;2023-06-26T11:56:09;9.83;;;5.30;;
7160;SDS011;3622;53.576;9.978;2023-06-26T11:58:35;7.03;;;4.07;;
7160;SDS011;3622;53.576;9.978;2023-06-26T12:01:01;16.37;;;5.30;;
7160;SDS011;3622;53.576;9.978;2023-06-26T12:03:28;7.13;;;3.47;;
7160;SDS011;3622;53.576;9.978;2023-06-26T12:05:55;26.63;;;5.67;;
7160;SDS011;3622;53.576;9.978;2023-06-26T12:08:21;16.13;;;4.03;;
7160;SDS011;3622;53.576;9.978;2023-06-26T12:10:47;7.67;;;3.77;;
7160;SDS011;3622;53.576;9.978;2023-06-26T12:13:13;9.27;;;3.20;;
7160;SDS011;3622;53.576;9.978;2023-06-26T12:15:39;13.47;;;6.23;;
7160;SDS011;3622;53.576;9.978;2023-06-26T12:18:08;12.97;;;4.40;;
7160;SDS011;3622;53.576;9.978;2023-06-26T12:20:39;7.10;;;3.50;;
7160;SDS011;3622;53.576;9.978;2023-06-26T12:23:05;14.20;;;4.33;;
7160;SDS011;3622;53.576;9.978;2023-06-26T12:25:36;11.43;;;4.00;;
7160;SDS011;3622;53.576;9.978;2023-06-26T12:28:02;6.30;;;3.30;;
7160;SDS011;3622;53.576;9.978;2023-06-26T12:30:29;14.13;;;3.63;;
7160;SDS011;3622;53.576;9.978;2023-06-26T12:32:54;8.10;;;3.60;;
7160;SDS011;3622;53.576;9.978;2023-06-26T12:35:21;8.53;;;3.60;;
7160;SDS011;3622;53.576;9.978;2023-06-26T12:37:47;9.23;;;3.57;;
7160;SDS011;3622;53.576;9.978;2023-06-26T12:40:19;17.53;;;4.90;;
7160;SDS011;3622;53.576;9.978;2023-06-26T12:42:48;12.57;;;3.70;;
7160;SDS011;3622;53.576;9.978;2023-06-26T12:45:14;7.77;;;3.20;;
7160;SDS011;3622;53.576;9.978;2023-06-26T12:47:41;11.10;;;4.00;;
7160;SDS011;3622;53.576;9.978;2023-06-26T12:50:07;12.13;;;3.40;;
7160;SDS011;3622;53.576;9.978;2023-06-26T12:52:33;8.67;;;3.10;;
7160;SDS011;3622;53.576;9.978;2023-06-26T12:54:59;28.40;;;5.13;;
7160;SDS011;3622;53.576;9.978;2023-06-26T12:57:25;12.53;;;3.17;;
7160;SDS011;3622;53.576;9.978;2023-06-26T12:59:51;10.40;;;3.40;;
7160;SDS011;3622;53.576;9.978;2023-06-26T13:02:17;8.40;;;2.90;;
7160;SDS011;3622;53.576;9.978;2023-06-26T13:04:43;12.90;;;4.07;;
7160;SDS011;3622;53.576;9.978;2023-06-26T13:07:10;10.57;;;3.10;;
7160;SDS011;3622;53.576;9.978;2023-06-26T13:09:36;6.63;;;3.00;;
7160;SDS011;3622;53.576;9.978;2023-06-26T13:12:03;7.17;;;2.60;;
7160;SDS011;3622;53.576;9.978;2023-06-26T13:14:30;7.33;;;3.30;;
7160;SDS011;3622;53.576;9.978;2023-06-26T13:16:56;4.53;;;2.73;;
7160;SDS011;3622;53.576;9.978;2023-06-26T13:19:22;6.17;;;2.93;;
7160;SDS011;3622;53.576;9.978;2023-06-26T13:21:48;13.47;;;3.60;;
7160;SDS011;3622;53.576;9.978;2023-06-26T13:24:14;9.90;;;3.60;;
7160;SDS011;3622;53.576;9.978;2023-06-26T13:26:40;8.57;;;3.10;;
7160;SDS011;3622;53.576;9.978;2023-06-26T13:29:06;8.63;;;3.50;;
7160;SDS011;3622;53.576;9.978;2023-06-26T13:31:32;8.60;;;3.03;;
7160;SDS011;3622;53.576;9.978;2023-06-26T13:33:58;12.20;;;2.97;;
7160;SDS011;3622;53.576;9.978;2023-06-26T13:36:25;7.90;;;2.73;;
7160;SDS011;3622;53.576;9.978;2023-06-26T13:38:51;8.97;;;3.40;;
7160;SDS011;3622;53.576;9.978;2023-06-26T13:41:22;12.47;;;3.20;;
7160;SDS011;3622;53.576;9.978;2023-06-26T13:43:48;5.67;;;2.50;;
7160;SDS011;3622;53.576;9.978;2023-06-26T13:46:15;7.57;;;3.23;;
7160;SDS011;3622;53.576;9.978;2023-06-26T13:48:41;18.90;;;3.50;;
7160;SDS011;3622;53.576;9.978;2023-06-26T13:51:07;12.17;;;2.90;;
7160;SDS011;3622;53.576;9.978;2023-06-26T13:53:33;8.77;;;3.17;;
7160;SDS011;3622;53.576;9.978;2023-06-26T13:55:59;6.30;;;2.40;;
7160;SDS011;3622;53.576;9.978;2023-06-26T13:58:25;4.20;;;2.40;;
7160;SDS011;3622;53.576;9.978;2023-06-26T14:00:52;9.90;;;2.60;;
7160;SDS011;3622;53.576;9.978;2023-06-26T14:03:18;9.97;;;2.70;;
7160;SDS011;3622;53.576;9.978;2023-06-26T14:05:44;6.57;;;2.73;;
7160;SDS011;3622;53.576;9.978;2023-06-26T14:08:10;10.60;;;3.00;;
7160;SDS011;3622;53.576;9.978;2023-06-26T14:10:36;7.43;;;2.63;;
7160;SDS011;3622;53.576;9.978;2023-06-26T14:13:03;11.40;;;3.13;;
7160;SDS011;3622;53.576;9.978;2023-06-26T14:15:29;6.43;;;3.03;;
7160;SDS011;3622;53.576;9.978;2023-06-26T14:17:55;20.53;;;4.97;;
7160;SDS011;3622;53.576;9.978;2023-06-26T14:20:21;7.40;;;2.73;;
7160;SDS011;3622;53.576;9.978;2023-06-26T14:22:48;9.33;;;3.10;;
7160;SDS011;3622;53.576;9.978;2023-06-26T14:25:14;10.37;;;2.70;;
7160;SDS011;3622;53.576;9.978;2023-06-26T14:27:40;9.33;;;3.00;;
7160;SDS011;3622;53.576;9.978;2023-06-26T14:30:06;7.10;;;2.73;;
7160;SDS011;3622;53.576;9.978;2023-06-26T14:32:33;10.90;;;3.30;;
7160;SDS011;3622;53.576;9.978;2023-06-26T14:35:00;8.27;;;2.53;;
7160;SDS011;3622;53.576;9.978;2023-06-26T14:37:26;8.43;;;3.50;;
7160;SDS011;3622;53.576;9.978;2023-06-26T14:39:52;8.67;;;2.73;;
7160;SDS011;3622;53.576;9.978;2023-06-26T14:42:18;10.60;;;2.93;;
7160;SDS011;3622;53.576;9.978;2023-06-26T14:44:44;12.27;;;3.40;;
7160;SDS011;3622;53.576;9.978;2023-06-26T14:47:13;14.13;;;3.07;;
7160;SDS011;3622;53.576;9.978;2023-06-26T14:49:39;7.27;;;2.53;;